Time;durP1;ratioP1;P1;durP2;ratioP2;P2;SDS_P1;SDS_P2;PMS_P1;PMS_P2;Temp;Humidity;BMP_temperature;BMP_pressure;BME280_temperature;BME280_humidity;BME280_pressure;Samples;Min_cycle;Max_cycle;Signal;HPM_P1;HPM_P2
2022/08/22 00:00:12;;;;;;;7.25;3.33;;;;;;;;;;5041281;28;20479;-90
2022/08/22 00:02:50;;;;;;;9.38;3.50;;;;;;;;;;5021676;28;20578;-89
2022/08/22 00:05:18;;;;;;;7.85;3.88;;;;;;;;;;5015374;28;20141;-90
2022/08/22 00:08:10;;;;;;;7.30;3.10;;;;;;;;;;4999335;28;20092;-88
2022/08/22 00:10:42;;;;;;;6.60;3.00;;;;;;;;;;5015832;28;20061;-89
2022/08/22 00:14:09;;;;;;;6.10;3.03;;;;;;;;;;5013677;28;20110;-90
2022/08/22 00:16:59;;;;;;;5.93;2.72;;;;;;;;;;4902730;29;20044;-89
2022/08/22 00:19:28;;;;;;;6.53;3.42;;;;;;;;;;4919138;29;20047;-91
2022/08/22 00:22:07;;;;;;;9.57;3.15;;;;;;;;;;5005002;28;20109;-87
2022/08/22 00:24:47;;;;;;;10.35;3.83;;;;;;;;;;5015044;28;20033;-87
2022/08/22 00:27:22;;;;;;;7.80;3.00;;;;;;;;;;5020231;28;20044;-86
2022/08/22 00:30:03;;;;;;;7.35;2.85;;;;;;;;;;5021410;28;20060;-87
2022/08/22 00:32:39;;;;;;;13.40;3.10;;;;;;;;;;5010966;28;20029;-86
2022/08/22 00:35:23;;;;;;;5.07;2.80;;;;;;;;;;5009926;28;20408;-86
2022/08/22 00:38:25;;;;;;;5.40;2.80;;;;;;;;;;5015639;28;20041;-87
2022/08/22 00:41:03;;;;;;;9.65;3.20;;;;;;;;;;5011269;28;20041;-87
2022/08/22 00:44:00;;;;;;;8.10;3.13;;;;;;;;;;5022937;28;20045;-86
2022/08/22 00:46:47;;;;;;;8.40;3.15;;;;;;;;;;4973914;28;20056;-87
2022/08/22 00:49:43;;;;;;;7.60;3.20;;;;;;;;;;5003494;28;20121;-87
2022/08/22 00:52:28;;;;;;;7.07;3.17;;;;;;;;;;5025557;28;20036;-86
2022/08/22 00:55:11;;;;;;;6.50;3.50;;;;;;;;;;5017205;28;20580;-86
2022/08/22 00:57:55;;;;;;;9.18;3.17;;;;;;;;;;5013396;28;20042;-86
2022/08/22 01:00:26;;;;;;;7.68;3.00;;;;;;;;;;5018765;28;20033;-87
2022/08/22 01:03:46;;;;;;;6.18;2.83;;;;;;;;;;5019635;28;20049;-86
2022/08/22 01:06:14;;;;;;;9.90;3.25;;;;;;;;;;5029937;28;20049;-87
2022/08/22 01:09:07;;;;;;;7.65;3.38;;;;;;;;;;5017952;28;21419;-87
2022/08/22 01:11:50;;;;;;;7.53;3.50;;;;;;;;;;5012475;28;20470;-87
2022/08/22 01:14:26;;;;;;;4.65;2.85;;;;;;;;;;5013137;28;20288;-88
2022/08/22 01:17:00;;;;;;;6.28;3.30;;;;;;;;;;4996801;28;20087;-88
2022/08/22 01:19:28;;;;;;;6.35;3.00;;;;;;;;;;5010550;28;20045;-87
2022/08/22 01:22:06;;;;;;;6.90;3.40;;;;;;;;;;5030822;28;20040;-87
2022/08/22 01:27:46;;;;;;;6.47;3.03;;;;;;;;;;5027579;28;20087;-87
2022/08/22 01:30:12;;;;;;;5.88;3.10;;;;;;;;;;5005192;28;20495;-87
2022/08/22 01:32:59;;;;;;;7.10;3.45;;;;;;;;;;5015346;28;20031;-86
2022/08/22 01:35:47;;;;;;;7.03;3.20;;;;;;;;;;5014793;28;20505;-86
2022/08/22 01:38:36;;;;;;;7.43;3.58;;;;;;;;;;5000606;28;20041;-87
2022/08/22 01:41:39;;;;;;;10.95;3.47;;;;;;;;;;5006342;28;20029;-87
2022/08/22 01:44:20;;;;;;;6.05;3.90;;;;;;;;;;5007260;28;20078;-87
2022/08/22 01:46:56;;;;;;;7.03;3.38;;;;;;;;;;5021120;28;20029;-87
2022/08/22 01:49:34;;;;;;;5.38;3.03;;;;;;;;;;5021897;28;20087;-87
2022/08/22 01:52:15;;;;;;;7.82;3.63;;;;;;;;;;5026719;28;20029;-86
2022/08/22 01:54:54;;;;;;;9.00;3.88;;;;;;;;;;5014253;28;20037;-86
2022/08/22 01:57:22;;;;;;;7.97;3.50;;;;;;;;;;5015033;28;20547;-86
2022/08/22 01:59:51;;;;;;;7.75;3.67;;;;;;;;;;5013344;28;20615;-86
2022/08/22 02:02:43;;;;;;;7.60;3.42;;;;;;;;;;5021887;28;20128;-85
2022/08/22 02:05:35;;;;;;;5.82;4.13;;;;;;;;;;5023050;28;20071;-86
2022/08/22 02:08:23;;;;;;;8.52;3.78;;;;;;;;;;4998192;28;20053;-86
2022/08/22 02:10:56;;;;;;;6.40;3.47;;;;;;;;;;5022190;28;20095;-86
2022/08/22 02:14:02;;;;;;;6.55;3.63;;;;;;;;;;4999969;28;20038;-86
2022/08/22 02:16:30;;;;;;;9.57;3.58;;;;;;;;;;5005226;28;20040;-87
2022/08/22 02:19:12;;;;;;;10.38;4.13;;;;;;;;;;5038093;28;20037;-87
2022/08/22 02:21:56;;;;;;;8.23;4.32;;;;;;;;;;5010056;28;20033;-87
2022/08/22 02:24:36;;;;;;;;;;;;;;;;;;5006894;28;20206;-87
2022/08/22 02:27:20;;;;;;;10.15;4.25;;;;;;;;;;5000250;28;19913;-87
2022/08/22 02:30:02;;;;;;;4.82;3.45;;;;;;;;;;5014288;28;20056;-86
2022/08/22 02:32:40;;;;;;;11.35;3.47;;;;;;;;;;5007090;28;20075;-87
2022/08/22 02:35:11;;;;;;;12.07;4.10;;;;;;;;;;5032993;28;20431;-86
2022/08/22 02:37:56;;;;;;;9.70;3.90;;;;;;;;;;5011078;28;21228;-87
2022/08/22 02:40:22;;;;;;;8.40;3.72;;;;;;;;;;5005831;28;20041;-87
2022/08/22 02:42:54;;;;;;;8.07;4.20;;;;;;;;;;5030791;28;20511;-87
2022/08/22 02:45:44;;;;;;;10.10;4.10;;;;;;;;;;5024891;28;20041;-86
2022/08/22 02:48:15;;;;;;;8.10;4.25;;;;;;;;;;5029734;28;20029;-87
2022/08/22 02:50:58;;;;;;;13.77;3.90;;;;;;;;;;5020817;28;20028;-86
2022/08/22 02:53:38;;;;;;;7.57;3.95;;;;;;;;;;5024696;28;20534;-87
2022/08/22 02:56:25;;;;;;;10.07;4.15;;;;;;;;;;5009684;28;20052;-87
2022/08/22 02:59:10;;;;;;;10.65;4.10;;;;;;;;;;5016521;28;20108;-87
2022/08/22 03:01:40;;;;;;;6.30;3.47;;;;;;;;;;5018676;28;20034;-87
2022/08/22 03:04:29;;;;;;;9.68;3.75;;;;;;;;;;5036319;28;20040;-86
2022/08/22 03:07:24;;;;;;;5.65;3.35;;;;;;;;;;5033373;28;20033;-87
2022/08/22 03:10:16;;;;;;;10.13;3.90;;;;;;;;;;5003831;28;20061;-87
2022/08/22 03:13:16;;;;;;;7.43;4.15;;;;;;;;;;5009226;28;20033;-88
2022/08/22 03:15:52;;;;;;;10.82;3.90;;;;;;;;;;5022749;28;20415;-87
2022/08/22 03:18:31;;;;;;;8.05;4.10;;;;;;;;;;5005945;28;20029;-88
2022/08/22 03:21:25;;;;;;;11.32;4.00;;;;;;;;;;5014576;28;20051;-86
2022/08/22 03:23:58;;;;;;;10.13;4.00;;;;;;;;;;5014262;28;20041;-87
2022/08/22 03:26:29;;;;;;;10.67;4.67;;;;;;;;;;5016143;28;20024;-88
2022/08/22 03:29:10;;;;;;;11.88;4.45;;;;;;;;;;5008454;28;20327;-87
2022/08/22 03:31:36;;;;;;;10.75;4.00;;;;;;;;;;5013404;28;20029;-86
2022/08/22 03:34:23;;;;;;;8.93;4.03;;;;;;;;;;5026382;28;20403;-85
2022/08/22 03:37:14;;;;;;;11.73;4.20;;;;;;;;;;5002183;28;20041;-87
2022/08/22 03:42:33;;;;;;;5.80;3.90;;;;;;;;;;4984594;28;20691;-86
2022/08/22 03:45:11;;;;;;;7.03;4.32;;;;;;;;;;5007740;28;20091;-88
2022/08/22 03:48:02;;;;;;;9.93;4.57;;;;;;;;;;5022672;28;20120;-88
2022/08/22 03:51:04;;;;;;;10.70;4.20;;;;;;;;;;5025564;28;20037;-86
2022/08/22 03:53:44;;;;;;;11.00;4.40;;;;;;;;;;5014879;28;20098;-84
2022/08/22 03:56:41;;;;;;;11.18;4.25;;;;;;;;;;4998072;28;20037;-86
2022/08/22 03:59:37;;;;;;;8.57;4.70;;;;;;;;;;5025077;28;20037;-87
2022/08/22 04:02:05;;;;;;;11.20;4.60;;;;;;;;;;5016026;28;20115;-85
2022/08/22 04:05:16;;;;;;;13.13;4.60;;;;;;;;;;5031897;28;20518;-86
2022/08/22 04:08:20;;;;;;;12.15;4.15;;;;;;;;;;5012570;28;20171;-84
2022/08/22 04:11:02;;;;;;;;;;;;;;;;;;4977231;28;20263;-82
2022/08/22 04:13:58;;;;;;;11.05;4.13;;;;;;;;;;5017618;28;20027;-85
2022/08/22 04:16:53;;;;;;;8.85;3.85;;;;;;;;;;5004661;28;20034;-85
2022/08/22 04:19:18;;;;;;;7.78;4.22;;;;;;;;;;5021165;28;20025;-85
2022/08/22 04:22:06;;;;;;;8.82;4.35;;;;;;;;;;5032911;28;20117;-85
2022/08/22 04:24:37;;;;;;;10.85;4.25;;;;;;;;;;5023870;28;20110;-85
2022/08/22 04:27:03;;;;;;;9.43;4.05;;;;;;;;;;5034059;28;20530;-87
2022/08/22 04:29:34;;;;;;;6.20;4.00;;;;;;;;;;5024161;28;20025;-84
2022/08/22 04:32:08;;;;;;;8.07;4.07;;;;;;;;;;5016259;28;20047;-89
2022/08/22 04:34:46;;;;;;;;;;;;;;;;;;5016797;28;20037;-88
2022/08/22 04:37:45;;;;;;;10.15;4.32;;;;;;;;;;5007569;28;20625;-86
2022/08/22 04:40:22;;;;;;;13.43;4.47;;;;;;;;;;5036672;28;20036;-88
2022/08/22 04:43:09;;;;;;;13.85;4.05;;;;;;;;;;5012031;28;20029;-88
2022/08/22 04:45:40;;;;;;;10.00;4.45;;;;;;;;;;5008657;28;20530;-88
2022/08/22 04:48:24;;;;;;;7.57;4.10;;;;;;;;;;5029443;28;20037;-86
2022/08/22 04:50:58;;;;;;;7.93;4.15;;;;;;;;;;5023882;28;20021;-88
2022/08/22 04:53:44;;;;;;;10.90;3.88;;;;;;;;;;5014419;28;20545;-87
2022/08/22 04:56:39;;;;;;;9.38;4.25;;;;;;;;;;5015394;28;20043;-87
2022/08/22 04:59:11;;;;;;;9.82;4.68;;;;;;;;;;5023564;28;20026;-87
2022/08/22 05:01:53;;;;;;;9.02;4.45;;;;;;;;;;5017978;28;20038;-87
2022/08/22 05:04:22;;;;;;;10.55;4.13;;;;;;;;;;5011322;28;20052;-87
2022/08/22 05:06:52;;;;;;;10.35;4.53;;;;;;;;;;5028118;28;20025;-87
2022/08/22 05:09:27;;;;;;;9.60;4.28;;;;;;;;;;5014189;28;20033;-87
2022/08/22 05:11:59;;;;;;;15.25;4.78;;;;;;;;;;5013699;28;20022;-87
2022/08/22 05:14:51;;;;;;;10.90;4.55;;;;;;;;;;5030299;28;20036;-86
2022/08/22 05:17:22;;;;;;;9.27;4.40;;;;;;;;;;5012705;28;20044;-87
2022/08/22 05:19:52;;;;;;;8.32;4.15;;;;;;;;;;5012881;28;20042;-87
2022/08/22 05:22:22;;;;;;;10.27;4.40;;;;;;;;;;5014502;28;20120;-87
2022/08/22 05:24:52;;;;;;;9.10;4.32;;;;;;;;;;5013585;28;20079;-87
2022/08/22 05:27:32;;;;;;;13.18;4.65;;;;;;;;;;5017354;28;20078;-86
2022/08/22 05:30:04;;;;;;;12.60;4.43;;;;;;;;;;5016557;28;20040;-87
2022/08/22 05:32:40;;;;;;;7.35;4.20;;;;;;;;;;5047013;28;20017;-88
2022/08/22 05:35:08;;;;;;;10.30;4.18;;;;;;;;;;5004658;28;20596;-89
2022/08/22 05:37:44;;;;;;;13.60;4.82;;;;;;;;;;5019256;28;20053;-88
2022/08/22 05:40:20;;;;;;;8.65;4.07;;;;;;;;;;5024078;28;20029;-88
2022/08/22 05:42:46;;;;;;;8.35;4.30;;;;;;;;;;5035812;28;20116;-88
2022/08/22 05:45:14;;;;;;;8.15;4.60;;;;;;;;;;5031513;28;20570;-89
2022/08/22 05:47:45;;;;;;;10.63;4.43;;;;;;;;;;5026086;28;20032;-88
2022/08/22 05:50:18;;;;;;;9.07;4.78;;;;;;;;;;5013939;28;20151;-89
2022/08/22 05:52:50;;;;;;;;;;;;;;;;;;4996593;28;20604;-89
2022/08/22 05:55:21;;;;;;;8.73;3.97;;;;;;;;;;5006257;28;19932;-88
2022/08/22 05:57:52;;;;;;;6.93;4.35;;;;;;;;;;5004157;28;20034;-88
2022/08/22 06:00:21;;;;;;;9.20;4.30;;;;;;;;;;5010279;28;20052;-89
2022/08/22 06:02:52;;;;;;;12.02;4.00;;;;;;;;;;5007484;28;20293;-88
2022/08/22 06:05:25;;;;;;;6.45;3.75;;;;;;;;;;5007444;28;20108;-89
2022/08/22 06:07:58;;;;;;;6.35;3.50;;;;;;;;;;5012122;28;20499;-87
2022/08/22 06:10:34;;;;;;;16.48;4.30;;;;;;;;;;4996999;28;20033;-88
2022/08/22 06:13:12;;;;;;;8.40;3.78;;;;;;;;;;5012943;28;20021;-89
2022/08/22 06:15:53;;;;;;;7.00;4.25;;;;;;;;;;5047708;28;20033;-89
2022/08/22 06:18:24;;;;;;;7.13;3.60;;;;;;;;;;5015440;28;20057;-88
2022/08/22 06:20:56;;;;;;;10.70;4.22;;;;;;;;;;5015707;28;20028;-89
2022/08/22 06:23:27;;;;;;;11.93;3.92;;;;;;;;;;5017859;28;20521;-88
2022/08/22 06:25:58;;;;;;;8.90;4.07;;;;;;;;;;5018981;28;20088;-87
2022/08/22 06:28:28;;;;;;;7.75;3.88;;;;;;;;;;5000960;28;20526;-88
2022/08/22 06:30:56;;;;;;;12.50;4.72;;;;;;;;;;5006787;28;20121;-88
2022/08/22 06:33:27;;;;;;;15.25;4.50;;;;;;;;;;5007435;28;20476;-87
2022/08/22 06:38:58;;;;;;;15.52;4.03;;;;;;;;;;5040899;28;20047;-87
2022/08/22 06:41:29;;;;;;;9.32;3.88;;;;;;;;;;5009305;28;20124;-87
2022/08/22 06:43:57;;;;;;;7.72;3.45;;;;;;;;;;5015992;28;20079;-88
2022/08/22 06:46:26;;;;;;;15.68;3.78;;;;;;;;;;5027940;28;20033;-87
2022/08/22 06:48:54;;;;;;;8.77;3.70;;;;;;;;;;5007681;28;20038;-88
2022/08/22 06:51:23;;;;;;;13.63;3.80;;;;;;;;;;5007274;28;20036;-87
2022/08/22 06:53:54;;;;;;;8.68;3.58;;;;;;;;;;5019276;28;20030;-83
2022/08/22 06:56:24;;;;;;;12.65;3.80;;;;;;;;;;5027114;28;20060;-82
2022/08/22 06:58:53;;;;;;;13.48;3.35;;;;;;;;;;5028624;28;20041;-83
2022/08/22 07:01:26;;;;;;;12.93;3.60;;;;;;;;;;5026667;28;20041;-83
2022/08/22 07:04:01;;;;;;;17.13;3.20;;;;;;;;;;5030954;28;20045;-83
2022/08/22 07:06:34;;;;;;;18.23;3.30;;;;;;;;;;5029089;28;20037;-82
2022/08/22 07:09:01;;;;;;;11.75;3.70;;;;;;;;;;5020792;28;20036;-82
2022/08/22 07:11:30;;;;;;;12.32;3.50;;;;;;;;;;5030344;28;20029;-83
2022/08/22 07:14:10;;;;;;;10.95;5.03;;;;;;;;;;5032005;28;20037;-83
2022/08/22 07:16:51;;;;;;;10.60;3.67;;;;;;;;;;5025693;28;20100;-82
2022/08/22 07:19:35;;;;;;;9.15;3.50;;;;;;;;;;5021853;28;20406;-82
2022/08/22 07:22:23;;;;;;;13.75;3.75;;;;;;;;;;5016007;28;20028;-86
2022/08/22 07:25:01;;;;;;;7.72;4.07;;;;;;;;;;4997237;28;20066;-86
2022/08/22 07:27:36;;;;;;;11.32;3.47;;;;;;;;;;5004835;28;20045;-85
2022/08/22 07:30:05;;;;;;;9.18;3.83;;;;;;;;;;5020627;28;20029;-85
2022/08/22 07:32:49;;;;;;;9.65;3.70;;;;;;;;;;5001020;28;20060;-84
2022/08/22 07:35:18;;;;;;;10.43;3.42;;;;;;;;;;5020884;28;20128;-85
2022/08/22 07:38:23;;;;;;;7.47;3.42;;;;;;;;;;5021200;28;20037;-86
2022/08/22 07:41:09;;;;;;;11.15;4.20;;;;;;;;;;4972019;28;20128;-85
2022/08/22 07:43:39;;;;;;;8.75;3.65;;;;;;;;;;5038523;28;20773;-86
2022/08/22 07:46:24;;;;;;;6.75;3.50;;;;;;;;;;5032005;28;20060;-84
2022/08/22 07:49:27;;;;;;;10.18;3.80;;;;;;;;;;5025806;28;20049;-86
2022/08/22 07:52:01;;;;;;;8.70;3.75;;;;;;;;;;5024866;28;20052;-86
2022/08/22 07:54:41;;;;;;;;;;;;;;;;;;5032151;28;20034;-87
2022/08/22 07:57:12;;;;;;;11.40;4.32;;;;;;;;;;5006349;28;19921;-84
2022/08/22 07:59:46;;;;;;;6.90;3.95;;;;;;;;;;5010417;28;20057;-86
2022/08/22 08:02:14;;;;;;;8.48;3.97;;;;;;;;;;5017258;28;21094;-86
2022/08/22 08:04:41;;;;;;;10.95;4.25;;;;;;;;;;4984801;28;20041;-84
2022/08/22 08:07:10;;;;;;;12.20;3.78;;;;;;;;;;5008810;28;20506;-85
2022/08/22 08:09:48;;;;;;;12.98;3.53;;;;;;;;;;5020530;28;20595;-85
2022/08/22 08:12:14;;;;;;;15.15;4.03;;;;;;;;;;5020708;28;20043;-84
2022/08/22 08:14:43;;;;;;;8.38;3.80;;;;;;;;;;4997966;28;20457;-86
2022/08/22 08:17:17;;;;;;;10.88;3.33;;;;;;;;;;5034122;28;20582;-85
2022/08/22 08:19:44;;;;;;;12.15;4.03;;;;;;;;;;5038431;28;20504;-85
2022/08/22 08:22:15;;;;;;;7.82;3.25;;;;;;;;;;5031872;28;20071;-85
2022/08/22 08:24:42;;;;;;;12.98;3.42;;;;;;;;;;5005145;28;20087;-86
2022/08/22 08:30:04;;;;;;;10.40;3.30;;;;;;;;;;5039852;28;20349;-86
2022/08/22 08:32:33;;;;;;;11.20;3.60;;;;;;;;;;5001885;28;20037;-86
2022/08/22 08:35:17;;;;;;;11.23;3.80;;;;;;;;;;5022455;28;20288;-85
2022/08/22 08:37:50;;;;;;;8.07;3.30;;;;;;;;;;5007185;28;20450;-85
2022/08/22 08:40:34;;;;;;;8.23;3.53;;;;;;;;;;5008853;28;20049;-85
2022/08/22 08:43:27;;;;;;;9.25;3.65;;;;;;;;;;5009401;28;20038;-85
2022/08/22 08:46:12;;;;;;;9.20;3.40;;;;;;;;;;5037994;28;20077;-86
2022/08/22 08:49:04;;;;;;;9.63;3.75;;;;;;;;;;5041482;28;20042;-88
2022/08/22 08:52:00;;;;;;;20.40;3.20;;;;;;;;;;5014563;28;20037;-85
2022/08/22 08:54:50;;;;;;;8.90;3.03;;;;;;;;;;5012398;28;20042;-85
2022/08/22 08:57:28;;;;;;;9.05;3.00;;;;;;;;;;5007800;28;20517;-85
2022/08/22 09:00:09;;;;;;;12.95;3.55;;;;;;;;;;5030987;28;20575;-85
2022/08/22 09:02:45;;;;;;;10.00;3.25;;;;;;;;;;5014039;28;20135;-84
2022/08/22 09:05:14;;;;;;;12.23;3.15;;;;;;;;;;5027381;28;20144;-84
2022/08/22 09:08:16;;;;;;;10.43;2.95;;;;;;;;;;5011538;28;20037;-84
2022/08/22 09:10:44;;;;;;;12.13;3.17;;;;;;;;;;5030172;28;20053;-83
2022/08/22 09:13:40;;;;;;;11.40;3.55;;;;;;;;;;5030403;28;20418;-83
2022/08/22 09:16:42;;;;;;;6.90;2.50;;;;;;;;;;5028968;28;20037;-83
2022/08/22 09:19:39;;;;;;;10.05;2.67;;;;;;;;;;5016322;28;20042;-84
2022/08/22 09:22:26;;;;;;;14.48;2.83;;;;;;;;;;5025925;28;20040;-84
2022/08/22 09:25:02;;;;;;;10.25;2.08;;;;;;;;;;5024948;28;20041;-83
2022/08/22 09:27:48;;;;;;;6.05;2.22;;;;;;;;;;5037329;28;20033;-83
2022/08/22 09:30:18;;;;;;;5.93;1.65;;;;;;;;;;5009531;28;20582;-84
2022/08/22 09:32:58;;;;;;;11.63;1.80;;;;;;;;;;5030348;28;20498;-84
2022/08/22 09:35:29;;;;;;;3.53;1.70;;;;;;;;;;4984184;28;20139;-85
2022/08/22 09:38:17;;;;;;;8.50;2.03;;;;;;;;;;5036880;28;20033;-84
2022/08/22 09:40:58;;;;;;;3.40;1.80;;;;;;;;;;5032965;28;20098;-84
2022/08/22 09:43:35;;;;;;;8.02;1.80;;;;;;;;;;5020643;28;20048;-84
2022/08/22 09:46:06;;;;;;;4.00;1.40;;;;;;;;;;5023551;28;20410;-85
2022/08/22 09:48:55;;;;;;;5.35;2.00;;;;;;;;;;5032010;28;20048;-85
2022/08/22 09:51:38;;;;;;;6.32;1.92;;;;;;;;;;5010663;28;20029;-84
2022/08/22 09:54:24;;;;;;;5.28;1.98;;;;;;;;;;5025514;28;20128;-84
2022/08/22 09:57:09;;;;;;;5.93;2.10;;;;;;;;;;5005169;28;20029;-84
2022/08/22 09:59:53;;;;;;;2.35;1.65;;;;;;;;;;5029182;28;20049;-81
2022/08/22 10:02:49;;;;;;;9.98;2.20;;;;;;;;;;5002826;28;20056;-82
2022/08/22 10:05:43;;;;;;;7.90;2.25;;;;;;;;;;5006329;28;20053;-82
2022/08/22 10:08:29;;;;;;;5.55;2.35;;;;;;;;;;5013251;28;20038;-82
2022/08/22 10:11:17;;;;;;;3.42;1.90;;;;;;;;;;5010979;28;20069;-81
2022/08/22 10:13:46;;;;;;;5.88;2.25;;;;;;;;;;5016424;28;20041;-83
2022/08/22 10:16:42;;;;;;;9.10;2.45;;;;;;;;;;5010743;28;20681;-82
2022/08/22 10:19:26;;;;;;;6.05;1.80;;;;;;;;;;5033756;28;20107;-85
2022/08/22 10:22:17;;;;;;;6.22;2.08;;;;;;;;;;5006849;28;20045;-84
2022/08/22 10:25:20;;;;;;;3.83;2.38;;;;;;;;;;5027168;28;20037;-84
2022/08/22 10:28:07;;;;;;;7.72;2.13;;;;;;;;;;5012077;28;20739;-85
2022/08/22 10:30:48;;;;;;;3.38;2.00;;;;;;;;;;5017901;28;20053;-84
2022/08/22 10:33:36;;;;;;;9.60;2.28;;;;;;;;;;5001969;28;20499;-84
2022/08/22 10:36:11;;;;;;;4.07;2.20;;;;;;;;;;5022695;28;20051;-84
2022/08/22 10:38:50;;;;;;;6.70;2.47;;;;;;;;;;5028381;28;20453;-85
2022/08/22 11:05:18;;;;;;;3.60;1.70;;;;;;;;;;5006184;28;21080;-86
2022/08/22 11:07:58;;;;;;;2.63;1.25;;;;;;;;;;5032963;28;20121;-87
2022/08/22 11:10:39;;;;;;;2.70;1.52;;;;;;;;;;5024495;28;20033;-85
2022/08/22 11:13:16;;;;;;;3.17;1.80;;;;;;;;;;5005061;28;20112;-85
2022/08/22 11:15:41;;;;;;;3.92;1.60;;;;;;;;;;5017219;28;20172;-86
2022/08/22 11:18:23;;;;;;;5.18;1.65;;;;;;;;;;5024434;28;20522;-85
2022/08/22 11:20:58;;;;;;;3.03;1.45;;;;;;;;;;5017433;28;20781;-85
2022/08/22 11:23:53;;;;;;;4.60;1.98;;;;;;;;;;5004783;28;20022;-85
2022/08/22 11:26:55;;;;;;;4.75;1.67;;;;;;;;;;5000929;28;20073;-86
2022/08/22 11:29:38;;;;;;;3.10;1.52;;;;;;;;;;4985598;28;20429;-85
2022/08/22 11:32:21;;;;;;;6.05;1.85;;;;;;;;;;5028391;28;20036;-85
2022/08/22 11:34:53;;;;;;;;;;;;;;;;;;5030463;28;20049;-88
2022/08/22 11:37:42;;;;;;;4.25;1.70;;;;;;;;;;5021137;28;20016;-86
2022/08/22 11:40:33;;;;;;;1.85;1.50;;;;;;;;;;5008609;28;20054;-85
2022/08/22 11:43:13;;;;;;;3.47;1.60;;;;;;;;;;5021708;28;20040;-85
2022/08/22 11:45:50;;;;;;;2.30;1.40;;;;;;;;;;5006599;28;20095;-87
2022/08/22 11:48:29;;;;;;;5.00;1.85;;;;;;;;;;5007937;28;20048;-85
2022/08/22 11:51:42;;;;;;;5.15;2.00;;;;;;;;;;5002750;28;20033;-85
2022/08/22 11:54:14;;;;;;;3.63;1.73;;;;;;;;;;4910027;29;20043;-86
2022/08/22 11:56:51;;;;;;;4.45;1.52;;;;;;;;;;4905057;29;20057;-87
2022/08/22 11:59:28;;;;;;;3.80;1.58;;;;;;;;;;5018922;28;20129;-86
2022/08/22 12:02:03;;;;;;;3.20;1.80;;;;;;;;;;5027795;28;20033;-86
2022/08/22 12:04:34;;;;;;;4.00;1.73;;;;;;;;;;5036994;28;20430;-86
2022/08/22 12:07:09;;;;;;;3.72;1.90;;;;;;;;;;5002079;28;20046;-87
2022/08/22 12:09:54;;;;;;;3.38;1.60;;;;;;;;;;4996070;28;20042;-86
2022/08/22 12:12:38;;;;;;;3.05;1.60;;;;;;;;;;5000189;28;20037;-85
2022/08/22 12:15:22;;;;;;;4.00;1.70;;;;;;;;;;5013210;28;20824;-85
2022/08/22 12:18:12;;;;;;;4.50;1.80;;;;;;;;;;5008486;28;20022;-86
2022/08/22 12:20:45;;;;;;;3.88;1.50;;;;;;;;;;5020808;28;20041;-87
2022/08/22 12:23:35;;;;;;;3.60;1.70;;;;;;;;;;4996975;28;20056;-87
2022/08/22 12:26:06;;;;;;;3.78;1.60;;;;;;;;;;5000664;28;20029;-88
2022/08/22 12:28:49;;;;;;;2.38;1.60;;;;;;;;;;5016020;28;20132;-88
2022/08/22 12:31:24;;;;;;;3.30;1.60;;;;;;;;;;5027349;28;20183;-90
2022/08/22 12:34:05;;;;;;;3.28;1.55;;;;;;;;;;5019108;28;20029;-88
2022/08/22 12:37:00;;;;;;;2.40;1.50;;;;;;;;;;4997438;28;20432;-88
2022/08/22 12:39:44;;;;;;;2.97;1.33;;;;;;;;;;5016747;28;20405;-88
2022/08/22 13:09:18;;;;;;;3.28;1.42;;;;;;;;;;5019515;28;21126;-89
2022/08/22 13:11:46;;;;;;;7.28;1.88;;;;;;;;;;5005581;28;20037;-86
2022/08/22 13:14:19;;;;;;;3.33;1.70;;;;;;;;;;5013799;28;20515;-86
2022/08/22 13:16:49;;;;;;;2.38;1.65;;;;;;;;;;5013553;28;20042;-87
2022/08/22 13:19:21;;;;;;;4.32;1.63;;;;;;;;;;5003167;28;20037;-86
2022/08/22 13:21:54;;;;;;;2.30;1.47;;;;;;;;;;5010896;28;20033;-87
2022/08/22 13:24:43;;;;;;;2.53;1.20;;;;;;;;;;5011366;28;20049;-89
2022/08/22 13:27:15;;;;;;;2.47;1.60;;;;;;;;;;5014811;28;20448;-91
2022/08/22 15:42:05;;;;;;;2.90;1.70;;;;;;;;;;5000003;28;20052;-86
2022/08/22 15:44:36;;;;;;;4.75;1.88;;;;;;;;;;4985113;28;20034;-85
2022/08/22 15:47:21;;;;;;;3.13;1.90;;;;;;;;;;4977978;28;20064;-85
2022/08/22 15:49:51;;;;;;;3.45;1.77;;;;;;;;;;4982552;28;20068;-83
2022/08/22 15:52:29;;;;;;;4.57;2.08;;;;;;;;;;4982932;28;20540;-83
2022/08/22 15:58:19;;;;;;;7.00;1.90;;;;;;;;;;5008714;28;20049;-84
2022/08/22 16:01:11;;;;;;;5.65;1.90;;;;;;;;;;5004670;28;20523;-85
2022/08/22 16:03:52;;;;;;;5.43;2.42;;;;;;;;;;4988066;28;20072;-87
2022/08/22 16:06:40;;;;;;;6.43;1.88;;;;;;;;;;4991982;28;20222;-83
2022/08/22 16:09:09;;;;;;;3.92;2.08;;;;;;;;;;4982758;28;20046;-84
2022/08/22 16:14:23;;;;;;;4.40;1.80;;;;;;;;;;5000909;28;20813;-85
2022/08/22 16:16:57;;;;;;;6.15;2.08;;;;;;;;;;5006172;28;20419;-84
2022/08/22 16:19:25;;;;;;;3.60;1.85;;;;;;;;;;4999977;28;20042;-84
2022/08/22 16:21:52;;;;;;;4.50;2.20;;;;;;;;;;5002016;28;20044;-84
2022/08/22 16:24:55;;;;;;;2.67;1.60;;;;;;;;;;4991283;28;20076;-84
2022/08/22 16:27:24;;;;;;;2.60;1.80;;;;;;;;;;5009565;28;20511;-84
2022/08/22 16:30:02;;;;;;;5.13;1.75;;;;;;;;;;4992718;28;20108;-83
2022/08/22 16:32:28;;;;;;;4.82;1.92;;;;;;;;;;4992516;28;20021;-84
2022/08/22 16:34:54;;;;;;;4.03;1.90;;;;;;;;;;5014340;28;20042;-82
2022/08/22 16:37:46;;;;;;;5.57;1.70;;;;;;;;;;5009039;28;20034;-83
2022/08/22 16:40:18;;;;;;;4.43;2.00;;;;;;;;;;5007874;28;20053;-83
2022/08/22 16:43:10;;;;;;;4.03;1.83;;;;;;;;;;4991566;28;20073;-84
2022/08/22 16:45:39;;;;;;;3.15;1.80;;;;;;;;;;4978654;28;20309;-83
2022/08/22 16:48:32;;;;;;;3.45;2.15;;;;;;;;;;5017211;28;20025;-83
2022/08/22 16:51:09;;;;;;;3.50;1.83;;;;;;;;;;5007823;28;20054;-83
2022/08/22 16:53:38;;;;;;;4.70;1.70;;;;;;;;;;5013719;28;20260;-83
2022/08/22 16:56:23;;;;;;;3.72;1.60;;;;;;;;;;4988809;28;20041;-83
2022/08/22 16:59:00;;;;;;;4.78;1.83;;;;;;;;;;4987582;28;20518;-83
2022/08/22 17:01:54;;;;;;;4.18;2.10;;;;;;;;;;5005205;28;20038;-82
2022/08/22 17:05:05;;;;;;;6.38;2.22;;;;;;;;;;5007979;28;20038;-84
2022/08/22 17:08:12;;;;;;;5.03;1.95;;;;;;;;;;4998276;28;20053;-83
2022/08/22 17:11:00;;;;;;;3.17;1.92;;;;;;;;;;5015903;28;20048;-82
2022/08/22 17:13:40;;;;;;;3.70;2.00;;;;;;;;;;5001727;28;20045;-83
2022/08/22 17:16:33;;;;;;;6.13;2.05;;;;;;;;;;5014458;28;20584;-83
2022/08/22 17:19:04;;;;;;;6.37;1.97;;;;;;;;;;5014220;28;20041;-81
2022/08/22 17:21:44;;;;;;;4.25;2.20;;;;;;;;;;5020009;28;20034;-83
2022/08/22 17:24:27;;;;;;;2.95;1.90;;;;;;;;;;5000262;28;20042;-82
2022/08/22 17:27:01;;;;;;;4.70;2.50;;;;;;;;;;4994665;28;20050;-83
2022/08/22 17:29:44;;;;;;;3.85;1.88;;;;;;;;;;5014933;28;20025;-83
2022/08/22 17:32:25;;;;;;;6.80;3.47;;;;;;;;;;4990061;28;20080;-82
2022/08/22 17:35:22;;;;;;;3.13;2.08;;;;;;;;;;5015974;28;20038;-82
2022/08/22 17:38:21;;;;;;;3.03;1.90;;;;;;;;;;5018345;28;20034;-83
2022/08/22 17:41:11;;;;;;;6.10;1.90;;;;;;;;;;5005723;28;20074;-83
2022/08/22 17:43:44;;;;;;;8.52;2.10;;;;;;;;;;5007389;28;20038;-83
2022/08/22 17:46:31;;;;;;;4.25;1.77;;;;;;;;;;5018350;28;20136;-83
2022/08/22 17:49:15;;;;;;;3.92;2.10;;;;;;;;;;5012339;28;20088;-83
2022/08/22 17:51:49;;;;;;;2.55;1.70;;;;;;;;;;4994026;28;20037;-83
2022/08/22 17:54:46;;;;;;;3.60;2.08;;;;;;;;;;4996098;28;20096;-83
2022/08/22 17:57:33;;;;;;;3.63;1.95;;;;;;;;;;4997079;28;20095;-87
2022/08/22 18:00:08;;;;;;;4.25;2.15;;;;;;;;;;4985115;28;20049;-84
2022/08/22 18:02:41;;;;;;;4.78;2.22;;;;;;;;;;4981399;28;20022;-83
2022/08/22 18:05:18;;;;;;;5.65;2.10;;;;;;;;;;5006395;28;20044;-83
2022/08/22 18:07:43;;;;;;;4.18;2.00;;;;;;;;;;4985433;28;20038;-84
2022/08/22 18:10:29;;;;;;;4.55;1.85;;;;;;;;;;4983594;28;21727;-84
2022/08/22 18:13:04;;;;;;;4.15;2.03;;;;;;;;;;4984278;28;20042;-84
2022/08/22 18:15:39;;;;;;;6.38;1.90;;;;;;;;;;4980812;28;20054;-85
2022/08/22 18:18:17;;;;;;;3.53;1.85;;;;;;;;;;5009118;28;20088;-84
2022/08/22 18:20:54;;;;;;;5.75;2.33;;;;;;;;;;4987714;28;20042;-85
2022/08/22 18:23:26;;;;;;;6.70;2.13;;;;;;;;;;4998912;28;20058;-86
2022/08/22 18:26:16;;;;;;;2.75;1.90;;;;;;;;;;4980366;28;20707;-85
2022/08/22 18:29:10;;;;;;;3.03;2.15;;;;;;;;;;4986320;28;20049;-85
2022/08/22 18:31:38;;;;;;;;;;;;;;;;;;4985197;28;20034;-86
2022/08/22 18:34:16;;;;;;;3.38;2.13;;;;;;;;;;5007124;28;20291;-85
2022/08/22 18:36:54;;;;;;;3.75;2.10;;;;;;;;;;5001841;28;20623;-84
2022/08/22 18:39:30;;;;;;;6.68;2.28;;;;;;;;;;4986313;28;20532;-84
2022/08/22 18:42:08;;;;;;;3.05;1.90;;;;;;;;;;5000721;28;20054;-85
2022/08/22 18:44:36;;;;;;;3.42;1.77;;;;;;;;;;5006485;28;20038;-86
2022/08/22 18:47:15;;;;;;;3.15;1.80;;;;;;;;;;5004742;28;20074;-85
2022/08/22 18:49:44;;;;;;;8.23;2.00;;;;;;;;;;5001048;28;20090;-86
2022/08/22 18:52:25;;;;;;;5.72;1.80;;;;;;;;;;5001329;28;20105;-86
2022/08/22 18:55:28;;;;;;;3.63;1.60;;;;;;;;;;5001182;28;20042;-87
2022/08/22 18:58:12;;;;;;;7.20;2.00;;;;;;;;;;4983936;28;20137;-85
2022/08/22 19:00:44;;;;;;;3.38;2.00;;;;;;;;;;4988530;28;20043;-86
2022/08/22 19:03:34;;;;;;;9.90;2.33;;;;;;;;;;4983738;28;20096;-85
2022/08/22 19:06:37;;;;;;;3.40;1.70;;;;;;;;;;4983501;28;20736;-86
2022/08/22 19:09:21;;;;;;;7.83;2.00;;;;;;;;;;4996362;28;20032;-85
2022/08/22 19:11:55;;;;;;;6.43;2.33;;;;;;;;;;5003138;28;20061;-86
2022/08/22 19:14:44;;;;;;;5.05;1.98;;;;;;;;;;4985146;28;20031;-85
2022/08/22 19:17:09;;;;;;;9.25;2.47;;;;;;;;;;4976656;28;20056;-87